createdAt,value
2022-11-13T00:01:11.579Z,20.03
2022-11-13T00:03:40.139Z,21.60
2022-11-13T00:06:08.931Z,22.40
2022-11-13T00:08:37.571Z,18.40
2022-11-13T00:11:09.639Z,20.17
2022-11-13T00:13:38.241Z,18.90
2022-11-13T00:16:10.651Z,19.57
2022-11-13T00:18:40.517Z,17.30
2022-11-13T00:21:09.600Z,18.33
2022-11-13T00:23:38.194Z,19.50
2022-11-13T00:26:07.866Z,21.53
2022-11-13T00:28:36.430Z,18.60
2022-11-13T00:31:05.378Z,19.00
2022-11-13T00:34:05.220Z,18.50
2022-11-13T00:36:26.494Z,19.50
2022-11-13T00:38:55.359Z,18.17
2022-11-13T00:41:24.112Z,19.90
2022-11-13T00:43:52.718Z,20.87
2022-11-13T00:46:21.352Z,18.37
2022-11-13T00:48:51.314Z,21.63
2022-11-13T00:51:19.945Z,20.13
2022-11-13T00:53:48.594Z,29.80
2022-11-13T00:56:17.231Z,28.50
2022-11-13T00:58:45.770Z,21.70
2022-11-13T01:01:14.990Z,20.53
2022-11-13T01:03:43.602Z,20.53
2022-11-13T01:06:16.557Z,19.90
2022-11-13T01:08:45.178Z,17.67
2022-11-13T01:11:14.909Z,20.10
2022-11-13T01:13:44.025Z,22.77
2022-11-13T01:16:13.233Z,20.90
2022-11-13T01:18:42.762Z,18.93
2022-11-13T01:21:14.566Z,18.60
2022-11-13T01:23:43.534Z,19.70
2022-11-13T01:26:13.576Z,16.47
2022-11-13T01:28:42.353Z,17.10
2022-11-13T01:31:11.546Z,17.40
2022-11-13T01:33:40.542Z,17.40
2022-11-13T01:36:10.401Z,16.47
2022-11-13T01:38:40.408Z,15.27
2022-11-13T01:41:09.229Z,17.50
2022-11-13T01:43:38.753Z,18.20
2022-11-13T01:46:09.922Z,16.70
2022-11-13T01:48:40.572Z,17.33
2022-11-13T01:51:11.822Z,19.27
2022-11-13T01:53:42.237Z,17.67
2022-11-13T01:56:10.822Z,19.50
2022-11-13T01:58:39.376Z,19.13
2022-11-13T02:01:08.146Z,18.30
2022-11-13T02:03:36.685Z,16.47
2022-11-13T02:06:05.270Z,15.67
2022-11-13T02:08:35.010Z,15.23
2022-11-13T02:11:04.923Z,15.57
2022-11-13T02:13:33.680Z,14.93
2022-11-13T02:16:02.251Z,14.43
2022-11-13T02:18:31.202Z,13.90
2022-11-13T02:21:04.476Z,13.33
2022-11-13T02:23:45.319Z,13.40
2022-11-13T02:26:15.441Z,13.53
2022-11-13T02:28:44.059Z,13.40
2022-11-13T02:31:13.428Z,13.50
2022-11-13T02:33:42.031Z,12.87
2022-11-13T02:36:10.917Z,12.60
2022-11-13T02:38:39.488Z,11.83
2022-11-13T02:41:08.077Z,13.37
2022-11-13T02:43:38.015Z,12.97
2022-11-13T02:46:06.938Z,12.50
2022-11-13T02:48:35.527Z,12.07
2022-11-13T02:51:04.091Z,12.07
2022-11-13T02:53:32.662Z,12.13
2022-11-13T02:56:01.213Z,10.60
2022-11-13T02:58:30.284Z,11.90
2022-11-13T03:01:02.183Z,11.70
2022-11-13T03:03:56.511Z,10.67
2022-11-13T03:06:19.303Z,12.57
2022-11-13T03:08:47.919Z,11.00
2022-11-13T03:11:16.509Z,12.10
2022-11-13T03:13:45.101Z,11.47
2022-11-13T03:16:15.820Z,11.20
2022-11-13T03:18:44.426Z,11.70
2022-11-13T03:21:14.596Z,10.77
2022-11-13T03:23:45.016Z,10.10
2022-11-13T03:26:15.766Z,10.43
2022-11-13T03:28:44.558Z,10.57
2022-11-13T03:31:14.499Z,11.70
2022-11-13T03:33:43.119Z,10.60
2022-11-13T03:36:11.739Z,10.00
2022-11-13T03:38:40.409Z,10.20
2022-11-13T03:41:09.262Z,9.97
2022-11-13T03:43:37.989Z,11.20
2022-11-13T03:46:06.772Z,10.20
2022-11-13T03:48:36.785Z,11.20
2022-11-13T03:51:05.485Z,9.90
2022-11-13T03:53:34.071Z,9.70
2022-11-13T03:56:02.664Z,11.50
2022-11-13T03:58:31.519Z,11.73
2022-11-13T04:01:00.208Z,11.07
2022-11-13T04:03:28.856Z,10.97
2022-11-13T04:05:58.793Z,11.17
2022-11-13T04:08:27.907Z,10.87
2022-11-13T04:10:56.740Z,11.50
2022-11-13T04:13:25.345Z,11.13
2022-11-13T04:15:53.957Z,11.40
2022-11-13T04:18:22.585Z,11.37
2022-11-13T04:20:51.133Z,11.00
2022-11-13T04:23:21.058Z,12.30
2022-11-13T04:25:50.516Z,11.00
2022-11-13T04:28:19.037Z,11.83
2022-11-13T04:30:48.054Z,10.93
2022-11-13T04:33:16.648Z,10.00
2022-11-13T04:35:51.527Z,10.73
2022-11-13T04:38:21.381Z,11.00
2022-11-13T04:41:11.532Z,10.00
2022-11-13T04:43:39.083Z,9.50
2022-11-13T04:46:07.757Z,10.73
2022-11-13T04:48:36.673Z,10.37
2022-11-13T04:51:05.508Z,9.90
2022-11-13T04:53:35.764Z,9.33
2022-11-13T04:56:04.480Z,9.63
2022-11-13T04:58:33.102Z,9.27
2022-11-13T05:01:01.665Z,9.10
2022-11-13T05:03:30.259Z,10.00
2022-11-13T05:06:04.370Z,10.20
2022-11-13T05:08:34.292Z,10.63
2022-11-13T05:11:02.941Z,10.40
2022-11-13T05:13:32.845Z,10.90
2022-11-13T05:16:05.033Z,9.70
2022-11-13T05:18:33.739Z,9.70
2022-11-13T05:21:02.330Z,9.90
2022-11-13T05:23:30.948Z,9.70
2022-11-13T05:26:04.935Z,10.80
2022-11-13T05:28:33.584Z,9.70
2022-11-13T05:31:06.699Z,10.17
2022-11-13T05:33:35.209Z,10.70
2022-11-13T05:36:04.411Z,10.80
2022-11-13T05:38:33.055Z,10.40
2022-11-13T05:41:06.836Z,11.00
2022-11-13T05:43:35.465Z,12.00
2022-11-13T05:46:04.507Z,13.00
2022-11-13T05:48:33.683Z,13.40
2022-11-13T05:51:05.511Z,13.50
2022-11-13T05:53:35.410Z,12.50
2022-11-13T05:56:05.944Z,10.90
2022-11-13T05:58:35.038Z,11.60
2022-11-13T06:01:08.175Z,11.63
2022-11-13T06:03:36.769Z,12.23
2022-11-13T06:06:05.761Z,12.23
2022-11-13T06:08:34.331Z,12.90
2022-11-13T06:11:03.434Z,11.93
2022-11-13T06:13:33.408Z,12.60
2022-11-13T06:16:05.740Z,13.37
2022-11-13T06:18:34.605Z,11.90
2022-11-13T06:21:03.618Z,11.67
2022-11-13T06:23:33.810Z,12.67
2022-11-13T06:26:03.261Z,11.40
2022-11-13T06:28:33.646Z,13.10
2022-11-13T06:31:05.199Z,13.53
2022-11-13T06:33:33.833Z,12.90
2022-11-13T06:36:03.363Z,11.63
2022-11-13T06:38:33.569Z,14.60
2022-11-13T06:41:02.313Z,12.97
2022-11-13T06:43:32.313Z,14.43
2022-11-13T06:46:03.710Z,13.80
2022-11-13T06:48:32.248Z,15.97
2022-11-13T06:51:02.593Z,17.80
2022-11-13T06:53:31.348Z,16.77
2022-11-13T06:56:00.314Z,17.80
2022-11-13T06:58:29.562Z,18.23
2022-11-13T07:00:59.884Z,19.00
2022-11-13T07:03:28.773Z,18.37
2022-11-13T07:05:57.361Z,18.93
2022-11-13T07:08:26.186Z,19.00
2022-11-13T07:10:55.710Z,17.67
2022-11-13T07:13:24.458Z,17.30
2022-11-13T07:15:53.001Z,17.50
2022-11-13T07:18:24.229Z,17.27
2022-11-13T07:20:52.970Z,16.47
2022-11-13T07:23:21.526Z,17.57
2022-11-13T07:25:50.111Z,16.13
2022-11-13T07:28:18.651Z,18.23
2022-11-13T07:30:47.253Z,17.30
2022-11-13T07:33:15.846Z,15.83
2022-11-13T07:35:45.798Z,16.17
2022-11-13T07:38:14.343Z,17.43
2022-11-13T07:40:43.486Z,17.27
2022-11-13T07:43:12.105Z,15.87
2022-11-13T07:45:40.597Z,18.70
2022-11-13T07:48:09.200Z,16.33
2022-11-13T07:50:38.312Z,16.43
2022-11-13T07:53:09.146Z,19.53
2022-11-13T07:55:38.008Z,22.60
2022-11-13T07:58:06.815Z,25.60
2022-11-13T08:00:36.020Z,23.07
2022-11-13T08:03:07.944Z,16.30
2022-11-13T08:05:36.580Z,15.33
2022-11-13T08:08:05.274Z,13.87
2022-11-13T08:10:35.205Z,14.67
2022-11-13T08:13:04.622Z,15.73
2022-11-13T08:15:33.278Z,14.87
2022-11-13T08:18:02.689Z,14.27
2022-11-13T08:20:31.844Z,14.87
2022-11-13T08:23:00.756Z,15.17
2022-11-13T08:25:29.538Z,13.80
2022-11-13T08:27:59.522Z,13.87
2022-11-13T08:30:28.847Z,14.77
2022-11-13T08:32:57.430Z,13.87
2022-11-13T08:35:29.372Z,13.10
2022-11-13T08:38:02.040Z,13.90
2022-11-13T08:40:30.583Z,13.10
2022-11-13T08:43:02.045Z,14.30
2022-11-13T08:45:31.004Z,14.40
2022-11-13T08:48:01.940Z,13.30
2022-11-13T08:50:30.742Z,13.97
2022-11-13T08:52:59.696Z,13.47
2022-11-13T08:55:28.495Z,12.50
2022-11-13T08:58:01.291Z,12.63
2022-11-13T09:00:30.261Z,12.83
2022-11-13T09:02:59.273Z,12.67
2022-11-13T09:05:27.980Z,12.87
2022-11-13T09:07:58.396Z,13.30
2022-11-13T09:10:27.305Z,12.60
2022-11-13T09:12:59.352Z,16.00
2022-11-13T09:15:29.481Z,12.97
2022-11-13T09:17:58.686Z,12.47
2022-11-13T09:20:27.340Z,13.67
2022-11-13T09:22:59.424Z,14.23
2022-11-13T09:25:31.430Z,12.03
2022-11-13T09:28:04.583Z,17.43
2022-11-13T09:30:34.537Z,12.67
2022-11-13T09:33:03.209Z,13.20
2022-11-13T09:35:35.395Z,12.03
2022-11-13T09:38:10.460Z,12.40
2022-11-13T09:40:42.686Z,12.17
2022-11-13T09:43:22.577Z,10.77
2022-11-13T09:45:53.046Z,11.30
2022-11-13T09:48:25.874Z,13.10
2022-11-13T09:50:54.708Z,11.10
2022-11-13T09:53:23.332Z,11.00
2022-11-13T09:55:57.391Z,11.60
2022-11-13T09:58:30.153Z,11.10
2022-11-13T10:01:01.669Z,11.20
2022-11-13T10:03:54.640Z,11.07
2022-11-13T10:06:26.398Z,11.47
2022-11-13T10:08:57.123Z,11.10
2022-11-13T10:11:31.132Z,11.80
2022-11-13T10:14:00.783Z,12.50
2022-11-13T10:16:33.726Z,12.87
2022-11-13T10:19:08.297Z,12.20
2022-11-13T10:21:38.537Z,12.00
2022-11-13T10:24:24.413Z,11.30
2022-11-13T10:26:52.955Z,12.20
2022-11-13T10:29:21.829Z,11.60
2022-11-13T10:31:52.852Z,11.07
2022-11-13T10:34:21.557Z,11.97
2022-11-13T10:37:01.411Z,11.50
2022-11-13T10:39:30.951Z,12.00
2022-11-13T10:41:59.526Z,12.13
2022-11-13T10:44:31.477Z,11.40
2022-11-13T10:47:10.626Z,11.43
2022-11-13T10:49:39.293Z,11.87
2022-11-13T10:52:17.644Z,13.17
2022-11-13T10:54:46.230Z,12.87
2022-11-13T10:57:33.200Z,11.80
2022-11-13T11:00:01.972Z,12.13
2022-11-13T11:02:31.974Z,13.43
2022-11-13T11:05:04.763Z,13.77
2022-11-13T11:07:36.340Z,14.27
2022-11-13T11:10:05.239Z,13.53
2022-11-13T11:12:32.843Z,14.07
2022-11-13T11:15:08.021Z,12.90
2022-11-13T11:17:42.472Z,12.90
2022-11-13T11:20:20.158Z,12.33
2022-11-13T11:22:49.297Z,13.00
2022-11-13T11:25:19.349Z,14.33
2022-11-13T11:27:49.226Z,13.53
2022-11-13T11:30:20.820Z,14.80
2022-11-13T11:32:54.206Z,14.33
2022-11-13T11:35:25.628Z,14.70
2022-11-13T11:37:56.959Z,12.57
2022-11-13T11:40:28.981Z,14.23
2022-11-13T11:43:02.531Z,13.10
2022-11-13T11:45:32.928Z,13.60
2022-11-13T11:48:04.228Z,15.30
2022-11-13T11:50:36.991Z,13.47
2022-11-13T11:53:07.472Z,13.30
2022-11-13T11:56:00.414Z,13.23
2022-11-13T11:58:36.829Z,13.03
2022-11-13T12:01:07.005Z,12.43
2022-11-13T12:03:56.511Z,13.37
2022-11-13T12:06:31.264Z,13.77
2022-11-13T12:09:03.815Z,12.97
2022-11-13T12:11:33.303Z,14.87
2022-11-13T12:14:07.300Z,14.20
2022-11-13T12:16:40.974Z,14.17
2022-11-13T12:19:19.616Z,14.67
2022-11-13T12:21:51.050Z,15.00
2022-11-13T12:24:46.143Z,14.30
2022-11-13T12:27:21.534Z,14.60
2022-11-13T12:29:57.856Z,15.30
2022-11-13T12:32:34.105Z,13.33
2022-11-13T12:35:06.459Z,13.30
2022-11-13T12:37:38.087Z,12.50
2022-11-13T12:40:08.182Z,13.23
2022-11-13T12:42:40.403Z,14.13
2022-11-13T12:45:13.640Z,14.20
2022-11-13T12:47:43.350Z,12.83
2022-11-13T12:50:31.417Z,14.00
2022-11-13T12:53:01.892Z,13.43
2022-11-13T12:55:32.068Z,13.37
2022-11-13T12:58:08.503Z,13.07
2022-11-13T13:00:37.235Z,14.70
2022-11-13T13:03:16.780Z,13.97
2022-11-13T13:06:06.138Z,13.70
2022-11-13T13:09:05.049Z,13.63
2022-11-13T13:11:39.382Z,13.30
2022-11-13T13:14:19.112Z,12.70
2022-11-13T13:16:47.702Z,13.53
2022-11-13T13:19:31.097Z,12.80
2022-11-13T13:22:01.043Z,13.33
2022-11-13T13:24:34.361Z,13.57
2022-11-13T13:27:03.042Z,14.13
2022-11-13T13:29:31.954Z,13.40
2022-11-13T13:32:10.961Z,12.60
2022-11-13T13:34:44.571Z,14.57
2022-11-13T13:37:21.094Z,13.70
2022-11-13T13:39:54.830Z,15.80
2022-11-13T13:42:33.318Z,15.53
2022-11-13T13:45:09.101Z,15.77
2022-11-13T13:47:39.260Z,17.67
2022-11-13T13:50:08.703Z,17.37
2022-11-13T13:52:38.787Z,15.90
2022-11-13T13:55:08.739Z,14.60
2022-11-13T13:57:41.248Z,15.60
2022-11-13T14:00:13.244Z,15.20
2022-11-13T14:02:47.155Z,13.80
2022-11-13T14:05:27.129Z,14.53
2022-11-13T14:07:57.727Z,14.67
2022-11-13T14:10:28.089Z,14.53
2022-11-13T14:12:57.162Z,15.00
2022-11-13T14:15:28.082Z,14.30
2022-11-13T14:18:07.310Z,14.67
2022-11-13T14:20:40.273Z,14.33
2022-11-13T14:23:11.449Z,14.93
2022-11-13T14:25:39.989Z,13.10
2022-11-13T14:28:14.784Z,12.93
2022-11-13T14:30:43.785Z,14.03
2022-11-13T14:33:12.520Z,13.47
2022-11-13T14:35:41.271Z,13.97
2022-11-13T14:38:19.230Z,12.80
2022-11-13T14:40:48.711Z,13.73
2022-11-13T14:43:19.541Z,13.20
2022-11-13T14:45:55.709Z,13.43
2022-11-13T14:48:25.502Z,14.70
2022-11-13T14:50:55.181Z,12.87
2022-11-13T14:53:32.828Z,12.80
2022-11-13T14:56:02.800Z,18.60
2022-11-13T14:58:32.275Z,38.07
2022-11-13T15:01:00.986Z,12.17
2022-11-13T15:03:29.742Z,11.90
2022-11-13T15:05:58.448Z,11.23
2022-11-13T15:08:26.996Z,11.27
2022-11-13T15:10:57.076Z,11.77
2022-11-13T15:13:25.879Z,11.03
2022-11-13T15:15:54.697Z,11.53
2022-11-13T15:18:23.287Z,10.87
2022-11-13T15:20:51.920Z,11.40
2022-11-13T15:23:20.630Z,12.50
2022-11-13T15:25:49.173Z,15.33
2022-11-13T15:28:19.164Z,23.97
2022-11-13T15:30:47.792Z,16.47
2022-11-13T15:33:16.634Z,12.93
2022-11-13T15:35:45.331Z,13.47
2022-11-13T15:38:13.925Z,12.70
2022-11-13T15:40:42.494Z,12.87
2022-11-13T15:43:20.431Z,12.00
2022-11-13T15:45:50.458Z,15.00
2022-11-13T15:48:19.014Z,13.10
2022-11-13T15:50:47.877Z,13.43
2022-11-13T15:53:16.506Z,11.67
2022-11-13T15:55:45.078Z,13.03
2022-11-13T15:58:16.637Z,13.70
2022-11-13T16:00:46.030Z,13.47
2022-11-13T16:03:15.928Z,13.83
2022-11-13T16:05:44.458Z,15.40
2022-11-13T16:08:13.676Z,13.80
2022-11-13T16:10:42.294Z,14.43
2022-11-13T16:13:12.663Z,15.10
2022-11-13T16:15:41.218Z,14.77
2022-11-13T16:18:12.830Z,14.40
2022-11-13T16:20:42.809Z,15.03
2022-11-13T16:23:12.409Z,15.70
2022-11-13T16:25:41.035Z,16.23
2022-11-13T16:28:12.098Z,16.00
2022-11-13T16:30:40.712Z,16.80
2022-11-13T16:33:09.960Z,17.10
2022-11-13T16:35:38.726Z,16.20
2022-11-13T16:38:11.936Z,18.80
2022-11-13T16:40:41.500Z,17.10
2022-11-13T16:43:10.258Z,18.00
2022-11-13T16:45:38.951Z,18.20
2022-11-13T16:48:07.656Z,16.27
2022-11-13T16:50:36.942Z,16.57
2022-11-13T16:53:05.557Z,18.00
2022-11-13T16:55:35.965Z,17.03
2022-11-13T16:58:04.549Z,16.40
2022-11-13T17:00:33.187Z,18.10
2022-11-13T17:03:01.802Z,18.57
2022-11-13T17:05:30.337Z,18.10
2022-11-13T17:07:59.460Z,19.23
2022-11-13T17:10:32.559Z,18.10
2022-11-13T17:13:02.733Z,17.73
2022-11-13T17:15:31.920Z,17.57
2022-11-13T17:18:00.564Z,17.83
2022-11-13T17:20:29.179Z,20.93
2022-11-13T17:22:57.798Z,23.03
2022-11-13T17:25:28.089Z,20.37
2022-11-13T17:27:56.717Z,22.10
2022-11-13T17:30:26.654Z,23.47
2022-11-13T17:32:55.168Z,53.17
2022-11-13T17:35:23.693Z,28.77
2022-11-13T17:37:52.233Z,23.60
2022-11-13T17:40:20.861Z,25.30
2022-11-13T17:42:49.569Z,22.53
2022-11-13T17:45:18.301Z,23.87
2022-11-13T17:47:50.312Z,21.73
2022-11-13T17:50:19.090Z,21.13
2022-11-13T17:52:47.657Z,20.67
2022-11-13T17:55:17.345Z,21.63
2022-11-13T17:57:45.922Z,22.57
2022-11-13T18:00:15.236Z,21.50
2022-11-13T18:02:43.890Z,23.43
2022-11-13T18:05:13.822Z,21.20
2022-11-13T18:07:42.408Z,20.87
2022-11-13T18:10:11.788Z,23.23
2022-11-13T18:12:40.343Z,21.83
2022-11-13T18:15:09.513Z,22.30
2022-11-13T18:17:38.092Z,20.50
2022-11-13T18:20:07.429Z,24.20
2022-11-13T18:22:37.413Z,23.20
2022-11-13T18:25:06.581Z,22.40
2022-11-13T18:27:35.138Z,22.87
2022-11-13T18:30:03.996Z,21.77
2022-11-13T18:32:32.538Z,21.93
2022-11-13T18:35:01.282Z,21.27
2022-11-13T18:37:30.297Z,20.30
2022-11-13T18:40:02.269Z,22.53
2022-11-13T18:42:30.967Z,21.40
2022-11-13T18:45:03.103Z,22.80
2022-11-13T18:47:34.428Z,23.80
2022-11-13T18:50:02.997Z,21.20
2022-11-13T18:52:32.752Z,20.07
2022-11-13T18:55:02.743Z,22.70
2022-11-13T18:57:31.337Z,19.97
2022-11-13T19:00:00.215Z,20.70
2022-11-13T19:02:28.995Z,19.87
2022-11-13T19:04:57.541Z,19.77
2022-11-13T19:07:26.169Z,20.50
2022-11-13T19:09:54.873Z,22.67
2022-11-13T19:12:24.839Z,20.93
2022-11-13T19:14:54.270Z,20.37
2022-11-13T19:17:22.866Z,19.20
2022-11-13T19:19:51.433Z,20.37
2022-11-13T19:22:20.002Z,18.77
2022-11-13T19:24:48.688Z,19.40
2022-11-13T19:27:17.267Z,20.80
2022-11-13T19:29:47.186Z,22.30
2022-11-13T19:32:15.722Z,21.37
2022-11-13T19:34:46.583Z,20.27
2022-11-13T19:37:19.110Z,22.07
2022-11-13T19:39:48.099Z,21.20
2022-11-13T19:42:16.699Z,22.80
2022-11-13T19:44:46.683Z,20.17
2022-11-13T19:47:15.358Z,20.50
2022-11-13T19:49:43.922Z,20.63
2022-11-13T19:52:12.461Z,21.20
2022-11-13T19:54:42.034Z,22.40
2022-11-13T19:57:10.623Z,22.00
2022-11-13T19:59:39.529Z,20.90
2022-11-13T20:02:11.028Z,20.80
2022-11-13T20:04:39.630Z,21.93
2022-11-13T20:07:08.289Z,22.07
2022-11-13T20:09:37.127Z,23.00
2022-11-13T20:12:06.188Z,21.70
2022-11-13T20:14:38.352Z,27.33
2022-11-13T20:17:08.685Z,23.03
2022-11-13T20:19:37.259Z,21.47
2022-11-13T20:22:05.824Z,22.50
2022-11-13T20:24:34.354Z,25.20
2022-11-13T20:27:02.908Z,26.50
2022-11-13T20:29:33.324Z,26.63
2022-11-13T20:32:01.919Z,28.20
2022-11-13T20:34:31.901Z,26.63
2022-11-13T20:37:00.500Z,28.57
2022-11-13T20:39:29.117Z,28.30
2022-11-13T20:41:57.713Z,28.93
2022-11-13T20:44:26.334Z,28.93
2022-11-13T20:46:54.914Z,27.57
2022-11-13T20:49:23.740Z,28.00
2022-11-13T20:51:57.144Z,32.33
2022-11-13T20:54:26.045Z,31.73
2022-11-13T20:56:54.680Z,31.13
2022-11-13T20:59:23.296Z,29.97
2022-11-13T21:01:52.002Z,30.37
2022-11-13T21:04:20.669Z,28.60
2022-11-13T21:06:49.293Z,29.30
2022-11-13T21:09:19.234Z,29.30
2022-11-13T21:11:47.834Z,29.70
2022-11-13T21:14:16.479Z,29.13
2022-11-13T21:16:45.029Z,29.70
2022-11-13T21:19:13.627Z,27.50
2022-11-13T21:21:42.242Z,28.20
2022-11-13T21:24:10.870Z,26.80
2022-11-13T21:26:40.825Z,27.87
2022-11-13T21:29:09.526Z,25.20
2022-11-13T21:31:38.206Z,26.80
2022-11-13T21:34:08.211Z,27.60
2022-11-13T21:36:36.881Z,27.03
2022-11-13T21:39:05.498Z,27.00
2022-11-13T21:41:34.120Z,26.53
2022-11-13T21:44:05.622Z,26.53
2022-11-13T21:46:35.370Z,28.17
2022-11-13T21:49:05.156Z,29.47
2022-11-13T21:51:34.298Z,27.60
2022-11-13T21:54:02.992Z,29.23
2022-11-13T21:56:32.504Z,28.60
2022-11-13T21:59:01.093Z,28.23
2022-11-13T22:01:37.531Z,32.20
2022-11-13T22:04:06.971Z,32.50
2022-11-13T22:06:36.699Z,29.20
2022-11-13T22:09:07.136Z,32.37
2022-11-13T22:11:36.766Z,31.43
2022-11-13T22:14:05.840Z,30.17
2022-11-13T22:16:36.881Z,33.77
2022-11-13T22:19:07.290Z,31.30
2022-11-13T22:21:36.069Z,34.40
2022-11-13T22:24:04.812Z,35.20
2022-11-13T22:26:36.309Z,33.60
2022-11-13T22:29:04.925Z,35.20
2022-11-13T22:31:35.612Z,33.80
2022-11-13T22:34:04.389Z,37.90
2022-11-13T22:36:34.226Z,37.27
2022-11-13T22:39:02.893Z,38.27
2022-11-13T22:41:32.532Z,35.77
2022-11-13T22:44:01.740Z,33.50
2022-11-13T22:46:31.312Z,34.93
2022-11-13T22:49:02.813Z,36.50
2022-11-13T22:51:32.397Z,34.93
2022-11-13T22:54:01.523Z,35.63
2022-11-13T22:56:31.342Z,37.30
2022-11-13T22:59:01.224Z,38.37
2022-11-13T23:01:30.720Z,40.17
2022-11-13T23:04:01.382Z,37.67
2022-11-13T23:06:31.013Z,37.37
2022-11-13T23:09:00.253Z,37.30
2022-11-13T23:11:30.554Z,39.40
2022-11-13T23:14:00.193Z,39.97
2022-11-13T23:16:29.086Z,38.30
2022-11-13T23:18:58.944Z,39.40
2022-11-13T23:21:29.380Z,36.80
2022-11-13T23:23:58.177Z,40.40
2022-11-13T23:26:27.439Z,40.57
2022-11-13T23:28:56.112Z,38.07
2022-11-13T23:31:24.693Z,39.73
2022-11-13T23:33:53.266Z,37.63
2022-11-13T23:36:21.941Z,36.37
2022-11-13T23:38:52.040Z,39.70
2022-11-13T23:41:20.718Z,36.90
2022-11-13T23:46:37.837Z,39.23
2022-11-13T23:49:06.352Z,39.03
2022-11-13T23:51:35.044Z,38.03
2022-11-13T23:54:05.315Z,38.67
2022-11-13T23:56:33.939Z,37.53
2022-11-13T23:59:02.480Z,37.70
